sensor_id;sensor_type;location;lat;lon;timestamp;temperature;humidity
63802;DHT22;49949;43.060;25.624;2023-08-07T00:00:28;19.60;99.90
63802;DHT22;49949;43.060;25.624;2023-08-07T00:02:53;19.50;99.90
63802;DHT22;49949;43.060;25.624;2023-08-07T00:05:19;19.40;99.90
63802;DHT22;49949;43.060;25.624;2023-08-07T00:07:45;19.30;99.90
63802;DHT22;49949;43.060;25.624;2023-08-07T00:10:12;19.10;99.90
63802;DHT22;49949;43.060;25.624;2023-08-07T00:12:38;19.10;99.90
63802;DHT22;49949;43.060;25.624;2023-08-07T00:15:05;19.00;99.90
63802;DHT22;49949;43.060;25.624;2023-08-07T00:17:31;19.00;99.90
63802;DHT22;49949;43.060;25.624;2023-08-07T00:19:56;18.90;99.90
63802;DHT22;49949;43.060;25.624;2023-08-07T00:22:22;18.90;99.90
63802;DHT22;49949;43.060;25.624;2023-08-07T00:24:48;18.90;99.90
63802;DHT22;49949;43.060;25.624;2023-08-07T00:27:14;18.80;99.90
63802;DHT22;49949;43.060;25.624;2023-08-07T00:29:40;18.80;99.90
63802;DHT22;49949;43.060;25.624;2023-08-07T00:32:06;18.70;99.90
63802;DHT22;49949;43.060;25.624;2023-08-07T00:34:32;18.70;99.90
63802;DHT22;49949;43.060;25.624;2023-08-07T00:36:58;18.60;99.90
63802;DHT22;49949;43.060;25.624;2023-08-07T00:39:24;18.60;99.90
63802;DHT22;49949;43.060;25.624;2023-08-07T00:41:50;18.50;99.90
63802;DHT22;49949;43.060;25.624;2023-08-07T00:44:15;18.50;99.90
63802;DHT22;49949;43.060;25.624;2023-08-07T00:46:42;18.40;99.90
63802;DHT22;49949;43.060;25.624;2023-08-07T00:49:09;18.40;99.90
63802;DHT22;49949;43.060;25.624;2023-08-07T00:51:37;18.40;99.90
63802;DHT22;49949;43.060;25.624;2023-08-07T00:54:04;18.40;99.90
63802;DHT22;49949;43.060;25.624;2023-08-07T00:56:31;18.40;99.90
63802;DHT22;49949;43.060;25.624;2023-08-07T00:58:58;18.40;99.90
63802;DHT22;49949;43.060;25.624;2023-08-07T01:01:25;18.40;99.90
63802;DHT22;49949;43.060;25.624;2023-08-07T01:03:51;18.30;99.90
63802;DHT22;49949;43.060;25.624;2023-08-07T01:06:16;18.30;99.90
63802;DHT22;49949;43.060;25.624;2023-08-07T01:08:43;18.30;99.90
63802;DHT22;49949;43.060;25.624;2023-08-07T01:11:14;18.20;99.90
63802;DHT22;49949;43.060;25.624;2023-08-07T01:19:29;18.10;99.90
63802;DHT22;49949;43.060;25.624;2023-08-07T01:22:16;18.00;99.90
63802;DHT22;49949;43.060;25.624;2023-08-07T01:24:51;18.00;99.90
63802;DHT22;49949;43.060;25.624;2023-08-07T01:35:08;17.80;99.90
63802;DHT22;49949;43.060;25.624;2023-08-07T01:37:39;17.80;99.90
63802;DHT22;49949;43.060;25.624;2023-08-07T01:40:06;17.60;99.90
63802;DHT22;49949;43.060;25.624;2023-08-07T01:42:33;17.60;99.90
63802;DHT22;49949;43.060;25.624;2023-08-07T01:44:59;17.60;99.90
63802;DHT22;49949;43.060;25.624;2023-08-07T01:47:24;17.60;99.90
63802;DHT22;49949;43.060;25.624;2023-08-07T01:49:50;17.50;99.90
63802;DHT22;49949;43.060;25.624;2023-08-07T01:52:16;17.40;99.90
63802;DHT22;49949;43.060;25.624;2023-08-07T01:54:41;17.40;99.90
63802;DHT22;49949;43.060;25.624;2023-08-07T01:57:07;17.40;99.90
63802;DHT22;49949;43.060;25.624;2023-08-07T01:59:33;17.30;99.90
63802;DHT22;49949;43.060;25.624;2023-08-07T02:01:58;17.30;99.90
63802;DHT22;49949;43.060;25.624;2023-08-07T02:04:24;17.30;99.90
63802;DHT22;49949;43.060;25.624;2023-08-07T02:06:50;17.30;99.90
63802;DHT22;49949;43.060;25.624;2023-08-07T02:09:15;17.30;99.90
63802;DHT22;49949;43.060;25.624;2023-08-07T02:11:41;17.30;99.90
63802;DHT22;49949;43.060;25.624;2023-08-07T02:14:08;17.30;99.90
63802;DHT22;49949;43.060;25.624;2023-08-07T02:16:33;17.20;99.90
63802;DHT22;49949;43.060;25.624;2023-08-07T02:18:59;17.10;99.90
63802;DHT22;49949;43.060;25.624;2023-08-07T02:21:25;17.10;99.90
63802;DHT22;49949;43.060;25.624;2023-08-07T02:23:50;17.20;99.90
63802;DHT22;49949;43.060;25.624;2023-08-07T02:26:16;17.20;99.90
63802;DHT22;49949;43.060;25.624;2023-08-07T02:28:42;17.20;99.90
63802;DHT22;49949;43.060;25.624;2023-08-07T02:31:07;17.20;99.90
63802;DHT22;49949;43.060;25.624;2023-08-07T02:33:33;17.30;99.90
63802;DHT22;49949;43.060;25.624;2023-08-07T02:35:59;17.20;99.90
63802;DHT22;49949;43.060;25.624;2023-08-07T02:38:25;17.20;99.90
63802;DHT22;49949;43.060;25.624;2023-08-07T02:40:51;17.10;99.90
63802;DHT22;49949;43.060;25.624;2023-08-07T02:43:17;17.10;99.90
63802;DHT22;49949;43.060;25.624;2023-08-07T02:45:42;17.10;99.90
63802;DHT22;49949;43.060;25.624;2023-08-07T02:48:08;17.00;99.90
63802;DHT22;49949;43.060;25.624;2023-08-07T02:50:34;17.00;99.90
63802;DHT22;49949;43.060;25.624;2023-08-07T02:53:01;16.90;99.90
63802;DHT22;49949;43.060;25.624;2023-08-07T02:55:27;16.90;99.90
63802;DHT22;49949;43.060;25.624;2023-08-07T02:57:52;16.90;99.90
63802;DHT22;49949;43.060;25.624;2023-08-07T03:00:18;16.90;99.90
63802;DHT22;49949;43.060;25.624;2023-08-07T03:02:44;16.90;99.90
63802;DHT22;49949;43.060;25.624;2023-08-07T03:05:09;16.80;99.90
63802;DHT22;49949;43.060;25.624;2023-08-07T03:07:35;16.80;99.90
63802;DHT22;49949;43.060;25.624;2023-08-07T03:10:01;16.80;99.90
63802;DHT22;49949;43.060;25.624;2023-08-07T03:12:26;16.80;99.90
63802;DHT22;49949;43.060;25.624;2023-08-07T03:14:52;16.60;99.90
63802;DHT22;49949;43.060;25.624;2023-08-07T03:17:18;16.60;99.90
63802;DHT22;49949;43.060;25.624;2023-08-07T03:19:44;16.60;99.90
63802;DHT22;49949;43.060;25.624;2023-08-07T03:22:10;16.50;99.90
63802;DHT22;49949;43.060;25.624;2023-08-07T03:24:35;16.50;99.90
63802;DHT22;49949;43.060;25.624;2023-08-07T03:27:01;16.60;99.90
63802;DHT22;49949;43.060;25.624;2023-08-07T03:29:27;16.60;99.90
63802;DHT22;49949;43.060;25.624;2023-08-07T03:31:52;16.60;99.90
63802;DHT22;49949;43.060;25.624;2023-08-07T03:34:18;16.60;99.90
63802;DHT22;49949;43.060;25.624;2023-08-07T03:36:45;16.60;99.90
63802;DHT22;49949;43.060;25.624;2023-08-07T03:39:10;16.60;99.90
63802;DHT22;49949;43.060;25.624;2023-08-07T03:41:37;16.60;99.90
63802;DHT22;49949;43.060;25.624;2023-08-07T03:44:03;16.60;99.90
63802;DHT22;49949;43.060;25.624;2023-08-07T03:46:29;16.60;99.90
63802;DHT22;49949;43.060;25.624;2023-08-07T03:48:55;16.60;99.90
63802;DHT22;49949;43.060;25.624;2023-08-07T03:51:21;16.90;99.90
63802;DHT22;49949;43.060;25.624;2023-08-07T03:53:46;17.40;99.90
63802;DHT22;49949;43.060;25.624;2023-08-07T03:56:12;17.80;99.90
63802;DHT22;49949;43.060;25.624;2023-08-07T03:58:38;18.40;99.90
63802;DHT22;49949;43.060;25.624;2023-08-07T04:01:04;18.90;99.90
63802;DHT22;49949;43.060;25.624;2023-08-07T04:03:29;19.60;99.90
63802;DHT22;49949;43.060;25.624;2023-08-07T04:05:55;20.20;99.90
63802;DHT22;49949;43.060;25.624;2023-08-07T04:08:21;20.70;99.90
63802;DHT22;49949;43.060;25.624;2023-08-07T04:11:03;21.00;99.90
63802;DHT22;49949;43.060;25.624;2023-08-07T04:13:29;21.60;99.90
63802;DHT22;49949;43.060;25.624;2023-08-07T04:15:55;22.20;99.90
63802;DHT22;49949;43.060;25.624;2023-08-07T04:18:21;22.60;99.90
63802;DHT22;49949;43.060;25.624;2023-08-07T04:20:56;22.90;99.90
63802;DHT22;49949;43.060;25.624;2023-08-07T04:23:22;23.20;99.90
63802;DHT22;49949;43.060;25.624;2023-08-07T04:25:49;23.50;99.90
63802;DHT22;49949;43.060;25.624;2023-08-07T04:28:15;23.90;99.90
63802;DHT22;49949;43.060;25.624;2023-08-07T04:30:41;24.10;99.90
63802;DHT22;49949;43.060;25.624;2023-08-07T04:33:07;24.10;99.90
63802;DHT22;49949;43.060;25.624;2023-08-07T04:35:33;24.30;99.50
63802;DHT22;49949;43.060;25.624;2023-08-07T04:38:00;24.70;99.10
63802;DHT22;49949;43.060;25.624;2023-08-07T04:40:25;24.80;97.40
63802;DHT22;49949;43.060;25.624;2023-08-07T04:42:51;25.10;95.50
63802;DHT22;49949;43.060;25.624;2023-08-07T04:45:17;25.30;93.00
63802;DHT22;49949;43.060;25.624;2023-08-07T04:47:42;25.50;92.50
63802;DHT22;49949;43.060;25.624;2023-08-07T04:50:08;25.60;89.70
63802;DHT22;49949;43.060;25.624;2023-08-07T04:52:35;25.60;89.10
63802;DHT22;49949;43.060;25.624;2023-08-07T04:55:01;25.90;88.80
63802;DHT22;49949;43.060;25.624;2023-08-07T04:57:27;26.10;87.10
63802;DHT22;49949;43.060;25.624;2023-08-07T04:59:53;26.60;85.20
63802;DHT22;49949;43.060;25.624;2023-08-07T05:02:19;26.70;84.00
63802;DHT22;49949;43.060;25.624;2023-08-07T05:04:45;27.00;83.90
63802;DHT22;49949;43.060;25.624;2023-08-07T05:07:12;26.80;80.30
63802;DHT22;49949;43.060;25.624;2023-08-07T05:09:38;26.20;84.60
63802;DHT22;49949;43.060;25.624;2023-08-07T05:12:05;26.30;84.10
63802;DHT22;49949;43.060;25.624;2023-08-07T05:14:32;26.10;83.30
63802;DHT22;49949;43.060;25.624;2023-08-07T05:16:58;26.10;84.80
63802;DHT22;49949;43.060;25.624;2023-08-07T05:19:25;25.70;83.80
63802;DHT22;49949;43.060;25.624;2023-08-07T05:21:50;25.50;85.40
63802;DHT22;49949;43.060;25.624;2023-08-07T05:24:17;25.60;83.00
63802;DHT22;49949;43.060;25.624;2023-08-07T05:26:43;25.50;83.60
63802;DHT22;49949;43.060;25.624;2023-08-07T05:29:08;25.50;83.50
63802;DHT22;49949;43.060;25.624;2023-08-07T05:31:34;25.50;81.60
63802;DHT22;49949;43.060;25.624;2023-08-07T05:34:00;25.70;82.70
63802;DHT22;49949;43.060;25.624;2023-08-07T05:36:25;25.70;80.10
63802;DHT22;49949;43.060;25.624;2023-08-07T05:38:51;25.60;80.50
63802;DHT22;49949;43.060;25.624;2023-08-07T05:41:17;25.50;81.30
63802;DHT22;49949;43.060;25.624;2023-08-07T05:43:43;25.30;81.70
63802;DHT22;49949;43.060;25.624;2023-08-07T05:46:08;25.40;82.00
63802;DHT22;49949;43.060;25.624;2023-08-07T05:48:35;25.30;82.10
63802;DHT22;49949;43.060;25.624;2023-08-07T05:51:01;25.10;82.30
63802;DHT22;49949;43.060;25.624;2023-08-07T05:53:26;25.10;82.70
63802;DHT22;49949;43.060;25.624;2023-08-07T05:55:52;25.00;82.50
63802;DHT22;49949;43.060;25.624;2023-08-07T05:58:18;25.00;83.20
63802;DHT22;49949;43.060;25.624;2023-08-07T06:00:44;25.10;82.30
63802;DHT22;49949;43.060;25.624;2023-08-07T06:03:10;25.30;82.00
63802;DHT22;49949;43.060;25.624;2023-08-07T06:05:36;25.50;82.10
63802;DHT22;49949;43.060;25.624;2023-08-07T06:08:01;25.60;79.80
63802;DHT22;49949;43.060;25.624;2023-08-07T06:10:27;25.30;79.60
63802;DHT22;49949;43.060;25.624;2023-08-07T06:12:53;25.30;80.60
63802;DHT22;49949;43.060;25.624;2023-08-07T06:15:19;25.40;80.30
63802;DHT22;49949;43.060;25.624;2023-08-07T06:17:45;25.40;80.90
63802;DHT22;49949;43.060;25.624;2023-08-07T06:20:11;25.40;80.40
63802;DHT22;49949;43.060;25.624;2023-08-07T06:22:40;25.50;79.70
63802;DHT22;49949;43.060;25.624;2023-08-07T06:25:06;25.40;79.20
63802;DHT22;49949;43.060;25.624;2023-08-07T06:27:32;25.30;80.90
63802;DHT22;49949;43.060;25.624;2023-08-07T06:29:58;25.30;79.80
63802;DHT22;49949;43.060;25.624;2023-08-07T06:32:25;25.40;80.40
63802;DHT22;49949;43.060;25.624;2023-08-07T06:34:52;25.30;79.50
63802;DHT22;49949;43.060;25.624;2023-08-07T06:37:18;25.30;81.10
63802;DHT22;49949;43.060;25.624;2023-08-07T06:39:43;25.30;78.80
63802;DHT22;49949;43.060;25.624;2023-08-07T06:42:09;25.20;79.60
63802;DHT22;49949;43.060;25.624;2023-08-07T06:44:35;25.20;79.20
63802;DHT22;49949;43.060;25.624;2023-08-07T06:47:01;25.30;78.80
63802;DHT22;49949;43.060;25.624;2023-08-07T06:49:27;25.40;78.60
63802;DHT22;49949;43.060;25.624;2023-08-07T06:51:52;25.40;78.80
63802;DHT22;49949;43.060;25.624;2023-08-07T06:54:18;25.40;80.00
63802;DHT22;49949;43.060;25.624;2023-08-07T06:56:44;25.50;78.80
63802;DHT22;49949;43.060;25.624;2023-08-07T06:59:10;25.50;77.90
63802;DHT22;49949;43.060;25.624;2023-08-07T07:01:35;25.70;77.60
63802;DHT22;49949;43.060;25.624;2023-08-07T07:04:01;25.50;77.50
63802;DHT22;49949;43.060;25.624;2023-08-07T07:06:27;25.50;78.80
63802;DHT22;49949;43.060;25.624;2023-08-07T07:08:53;25.50;77.30
63802;DHT22;49949;43.060;25.624;2023-08-07T07:11:20;25.50;77.30
63802;DHT22;49949;43.060;25.624;2023-08-07T07:13:47;25.40;75.60
63802;DHT22;49949;43.060;25.624;2023-08-07T07:16:14;25.50;77.70
63802;DHT22;49949;43.060;25.624;2023-08-07T07:18:40;25.70;76.70
63802;DHT22;49949;43.060;25.624;2023-08-07T07:21:06;25.70;75.50
63802;DHT22;49949;43.060;25.624;2023-08-07T07:23:32;25.80;74.60
63802;DHT22;49949;43.060;25.624;2023-08-07T07:25:57;25.80;74.00
63802;DHT22;49949;43.060;25.624;2023-08-07T07:28:23;25.90;74.50
63802;DHT22;49949;43.060;25.624;2023-08-07T07:30:50;25.90;73.20
63802;DHT22;49949;43.060;25.624;2023-08-07T07:33:16;26.00;73.60
63802;DHT22;49949;43.060;25.624;2023-08-07T07:35:42;26.20;73.90
63802;DHT22;49949;43.060;25.624;2023-08-07T07:38:08;26.50;73.40
63802;DHT22;49949;43.060;25.624;2023-08-07T07:40:37;26.50;72.50
63802;DHT22;49949;43.060;25.624;2023-08-07T07:43:04;26.40;72.70
63802;DHT22;49949;43.060;25.624;2023-08-07T07:45:30;26.40;72.50
63802;DHT22;49949;43.060;25.624;2023-08-07T07:47:55;26.40;72.00
63802;DHT22;49949;43.060;25.624;2023-08-07T07:50:21;26.40;72.20
63802;DHT22;49949;43.060;25.624;2023-08-07T07:52:47;26.60;71.10
63802;DHT22;49949;43.060;25.624;2023-08-07T07:55:13;26.80;70.10
63802;DHT22;49949;43.060;25.624;2023-08-07T07:57:39;26.90;71.10
63802;DHT22;49949;43.060;25.624;2023-08-07T08:00:06;26.90;69.10
63802;DHT22;49949;43.060;25.624;2023-08-07T08:02:36;26.90;69.90
63802;DHT22;49949;43.060;25.624;2023-08-07T08:05:02;26.90;70.00
63802;DHT22;49949;43.060;25.624;2023-08-07T08:07:28;27.10;68.40
63802;DHT22;49949;43.060;25.624;2023-08-07T08:09:53;27.10;67.60
63802;DHT22;49949;43.060;25.624;2023-08-07T08:12:21;27.20;66.90
63802;DHT22;49949;43.060;25.624;2023-08-07T08:14:47;27.40;67.40
63802;DHT22;49949;43.060;25.624;2023-08-07T08:17:13;27.30;66.90
63802;DHT22;49949;43.060;25.624;2023-08-07T08:19:39;27.30;67.60
63802;DHT22;49949;43.060;25.624;2023-08-07T08:22:05;27.30;68.00
63802;DHT22;49949;43.060;25.624;2023-08-07T08:24:31;27.30;66.50
63802;DHT22;49949;43.060;25.624;2023-08-07T08:26:57;27.30;66.50
63802;DHT22;49949;43.060;25.624;2023-08-07T08:29:23;27.30;66.90
63802;DHT22;49949;43.060;25.624;2023-08-07T08:31:48;27.30;66.00
63802;DHT22;49949;43.060;25.624;2023-08-07T08:34:14;27.30;66.20
63802;DHT22;49949;43.060;25.624;2023-08-07T08:36:40;27.50;66.50
63802;DHT22;49949;43.060;25.624;2023-08-07T08:39:05;27.50;64.60
63802;DHT22;49949;43.060;25.624;2023-08-07T08:41:31;27.60;65.00
63802;DHT22;49949;43.060;25.624;2023-08-07T08:43:57;27.70;63.70
63802;DHT22;49949;43.060;25.624;2023-08-07T08:46:26;27.60;62.90
63802;DHT22;49949;43.060;25.624;2023-08-07T08:48:57;27.70;62.90
63802;DHT22;49949;43.060;25.624;2023-08-07T08:51:24;27.90;62.80
63802;DHT22;49949;43.060;25.624;2023-08-07T08:53:52;28.00;60.90
63802;DHT22;49949;43.060;25.624;2023-08-07T08:56:18;28.00;61.20
63802;DHT22;49949;43.060;25.624;2023-08-07T08:58:43;28.20;63.10
63802;DHT22;49949;43.060;25.624;2023-08-07T09:01:09;28.30;61.40
63802;DHT22;49949;43.060;25.624;2023-08-07T09:03:36;28.20;61.20
63802;DHT22;49949;43.060;25.624;2023-08-07T09:06:02;28.20;62.40
63802;DHT22;49949;43.060;25.624;2023-08-07T09:08:27;28.30;60.60
63802;DHT22;49949;43.060;25.624;2023-08-07T09:10:56;28.70;59.70
63802;DHT22;49949;43.060;25.624;2023-08-07T09:13:24;28.70;59.60
63802;DHT22;49949;43.060;25.624;2023-08-07T09:15:52;29.00;59.60
63802;DHT22;49949;43.060;25.624;2023-08-07T09:18:18;28.80;59.30
63802;DHT22;49949;43.060;25.624;2023-08-07T09:20:49;28.70;58.40
63802;DHT22;49949;43.060;25.624;2023-08-07T09:23:18;28.80;59.60
63802;DHT22;49949;43.060;25.624;2023-08-07T09:25:44;28.90;58.30
63802;DHT22;49949;43.060;25.624;2023-08-07T09:28:11;29.00;58.50
63802;DHT22;49949;43.060;25.624;2023-08-07T09:30:37;29.10;57.60
63802;DHT22;49949;43.060;25.624;2023-08-07T09:33:03;29.30;57.00
63802;DHT22;49949;43.060;25.624;2023-08-07T09:35:30;29.50;57.10
63802;DHT22;49949;43.060;25.624;2023-08-07T09:37:57;29.50;55.80
63802;DHT22;49949;43.060;25.624;2023-08-07T09:40:23;29.50;56.00
63802;DHT22;49949;43.060;25.624;2023-08-07T09:42:53;29.60;56.10
63802;DHT22;49949;43.060;25.624;2023-08-07T09:45:26;29.60;55.30
63802;DHT22;49949;43.060;25.624;2023-08-07T09:48:03;29.60;54.80
63802;DHT22;49949;43.060;25.624;2023-08-07T09:50:30;29.40;56.30
63802;DHT22;49949;43.060;25.624;2023-08-07T09:52:57;29.40;56.50
63802;DHT22;49949;43.060;25.624;2023-08-07T09:55:26;29.60;56.80
63802;DHT22;49949;43.060;25.624;2023-08-07T09:57:53;29.60;55.20
63802;DHT22;49949;43.060;25.624;2023-08-07T10:00:19;29.90;55.50
63802;DHT22;49949;43.060;25.624;2023-08-07T10:02:48;30.10;53.80
63802;DHT22;49949;43.060;25.624;2023-08-07T10:05:15;30.00;53.20
63802;DHT22;49949;43.060;25.624;2023-08-07T10:07:41;30.20;54.10
63802;DHT22;49949;43.060;25.624;2023-08-07T10:10:07;30.30;52.20
63802;DHT22;49949;43.060;25.624;2023-08-07T10:12:33;30.00;52.40
63802;DHT22;49949;43.060;25.624;2023-08-07T10:15:00;29.80;50.80
63802;DHT22;49949;43.060;25.624;2023-08-07T10:17:27;29.60;53.40
63802;DHT22;49949;43.060;25.624;2023-08-07T10:19:54;29.60;55.00
63802;DHT22;49949;43.060;25.624;2023-08-07T10:22:20;29.60;54.00
63802;DHT22;49949;43.060;25.624;2023-08-07T10:24:50;29.50;55.00
63802;DHT22;49949;43.060;25.624;2023-08-07T10:27:17;29.80;54.40
63802;DHT22;49949;43.060;25.624;2023-08-07T10:29:48;29.60;52.70
63802;DHT22;49949;43.060;25.624;2023-08-07T10:32:16;29.60;53.70
63802;DHT22;49949;43.060;25.624;2023-08-07T10:34:47;29.70;53.50
63802;DHT22;49949;43.060;25.624;2023-08-07T10:37:50;29.80;54.00
63802;DHT22;49949;43.060;25.624;2023-08-07T10:40:16;29.70;53.20
63802;DHT22;49949;43.060;25.624;2023-08-07T10:45:20;29.30;53.00
63802;DHT22;49949;43.060;25.624;2023-08-07T10:48:11;29.50;53.40
63802;DHT22;49949;43.060;25.624;2023-08-07T10:53:34;29.50;53.90
63802;DHT22;49949;43.060;25.624;2023-08-07T10:56:08;29.30;54.50
63802;DHT22;49949;43.060;25.624;2023-08-07T10:58:37;29.30;54.40
63802;DHT22;49949;43.060;25.624;2023-08-07T11:01:27;29.30;52.80
63802;DHT22;49949;43.060;25.624;2023-08-07T11:04:06;29.50;54.10
63802;DHT22;49949;43.060;25.624;2023-08-07T11:06:33;29.50;53.40
63802;DHT22;49949;43.060;25.624;2023-08-07T11:09:03;29.60;52.70
63802;DHT22;49949;43.060;25.624;2023-08-07T11:11:36;29.70;53.60
63802;DHT22;49949;43.060;25.624;2023-08-07T11:14:17;29.80;54.20
63802;DHT22;49949;43.060;25.624;2023-08-07T11:16:44;29.80;53.30
63802;DHT22;49949;43.060;25.624;2023-08-07T11:19:13;29.80;53.50
63802;DHT22;49949;43.060;25.624;2023-08-07T11:21:40;29.50;53.30
63802;DHT22;49949;43.060;25.624;2023-08-07T11:24:06;29.60;53.60
63802;DHT22;49949;43.060;25.624;2023-08-07T11:26:32;29.80;52.50
63802;DHT22;49949;43.060;25.624;2023-08-07T11:28:58;29.80;52.80
63802;DHT22;49949;43.060;25.624;2023-08-07T11:31:25;29.80;51.00
63802;DHT22;49949;43.060;25.624;2023-08-07T11:33:51;29.70;52.30
63802;DHT22;49949;43.060;25.624;2023-08-07T11:36:17;29.60;52.30
63802;DHT22;49949;43.060;25.624;2023-08-07T11:38:44;29.80;52.30
63802;DHT22;49949;43.060;25.624;2023-08-07T11:41:11;29.60;51.80
63802;DHT22;49949;43.060;25.624;2023-08-07T11:43:37;29.70;52.80
63802;DHT22;49949;43.060;25.624;2023-08-07T11:46:05;29.80;52.50
63802;DHT22;49949;43.060;25.624;2023-08-07T11:48:32;29.80;52.80
63802;DHT22;49949;43.060;25.624;2023-08-07T11:50:59;29.80;52.20
63802;DHT22;49949;43.060;25.624;2023-08-07T11:53:27;29.80;52.00
63802;DHT22;49949;43.060;25.624;2023-08-07T11:56:02;29.80;51.80
63802;DHT22;49949;43.060;25.624;2023-08-07T11:58:37;29.70;51.80
63802;DHT22;49949;43.060;25.624;2023-08-07T12:01:08;29.80;52.20
63802;DHT22;49949;43.060;25.624;2023-08-07T12:03:36;29.80;51.60
63802;DHT22;49949;43.060;25.624;2023-08-07T12:06:05;29.80;51.00
63802;DHT22;49949;43.060;25.624;2023-08-07T12:08:35;29.80;50.00
63802;DHT22;49949;43.060;25.624;2023-08-07T12:11:06;29.80;49.30
63802;DHT22;49949;43.060;25.624;2023-08-07T12:13:32;29.90;49.70
63802;DHT22;49949;43.060;25.624;2023-08-07T12:16:01;29.90;50.50
63802;DHT22;49949;43.060;25.624;2023-08-07T12:18:27;29.90;50.70
63802;DHT22;49949;43.060;25.624;2023-08-07T12:21:00;29.90;50.20
63802;DHT22;49949;43.060;25.624;2023-08-07T12:23:26;30.00;51.00
63802;DHT22;49949;43.060;25.624;2023-08-07T12:25:52;30.00;50.50
63802;DHT22;49949;43.060;25.624;2023-08-07T12:28:19;29.80;51.80
63802;DHT22;49949;43.060;25.624;2023-08-07T12:30:48;29.60;51.40
63802;DHT22;49949;43.060;25.624;2023-08-07T12:33:14;29.40;51.10
63802;DHT22;49949;43.060;25.624;2023-08-07T12:35:40;29.40;52.80
63802;DHT22;49949;43.060;25.624;2023-08-07T12:38:07;29.60;51.70
63802;DHT22;49949;43.060;25.624;2023-08-07T12:40:33;29.70;50.50
63802;DHT22;49949;43.060;25.624;2023-08-07T12:43:02;29.80;51.40
63802;DHT22;49949;43.060;25.624;2023-08-07T12:45:27;29.90;50.40
63802;DHT22;49949;43.060;25.624;2023-08-07T12:47:53;30.00;49.40
63802;DHT22;49949;43.060;25.624;2023-08-07T12:50:19;29.90;50.60
63802;DHT22;49949;43.060;25.624;2023-08-07T12:52:45;30.00;50.00
63802;DHT22;49949;43.060;25.624;2023-08-07T12:55:11;30.20;51.20
63802;DHT22;49949;43.060;25.624;2023-08-07T12:57:43;30.30;51.40
63802;DHT22;49949;43.060;25.624;2023-08-07T13:00:10;30.30;51.10
63802;DHT22;49949;43.060;25.624;2023-08-07T13:02:44;30.20;48.70
63802;DHT22;49949;43.060;25.624;2023-08-07T13:05:11;30.00;50.50
63802;DHT22;49949;43.060;25.624;2023-08-07T13:07:38;30.00;51.50
63802;DHT22;49949;43.060;25.624;2023-08-07T13:10:05;30.00;50.30
63802;DHT22;49949;43.060;25.624;2023-08-07T13:12:36;30.00;50.40
63802;DHT22;49949;43.060;25.624;2023-08-07T13:15:03;29.90;48.50
63802;DHT22;49949;43.060;25.624;2023-08-07T13:17:30;29.50;49.50
63802;DHT22;49949;43.060;25.624;2023-08-07T13:19:56;29.50;50.40
63802;DHT22;49949;43.060;25.624;2023-08-07T13:22:22;29.50;52.20
63802;DHT22;49949;43.060;25.624;2023-08-07T13:24:48;29.60;50.60
63802;DHT22;49949;43.060;25.624;2023-08-07T13:27:13;29.60;51.40
63802;DHT22;49949;43.060;25.624;2023-08-07T13:29:39;29.80;51.50
63802;DHT22;49949;43.060;25.624;2023-08-07T13:32:06;30.00;51.60
63802;DHT22;49949;43.060;25.624;2023-08-07T13:34:37;30.10;51.20
63802;DHT22;49949;43.060;25.624;2023-08-07T13:37:04;30.30;49.70
63802;DHT22;49949;43.060;25.624;2023-08-07T13:39:30;30.30;48.60
63802;DHT22;49949;43.060;25.624;2023-08-07T13:41:56;30.30;49.20
63802;DHT22;49949;43.060;25.624;2023-08-07T13:44:22;30.30;49.00
63802;DHT22;49949;43.060;25.624;2023-08-07T13:46:48;30.30;49.00
63802;DHT22;49949;43.060;25.624;2023-08-07T13:49:14;30.50;49.00
63802;DHT22;49949;43.060;25.624;2023-08-07T13:51:40;30.60;49.20
63802;DHT22;49949;43.060;25.624;2023-08-07T13:54:06;30.60;47.50
63802;DHT22;49949;43.060;25.624;2023-08-07T13:56:33;30.40;47.30
63802;DHT22;49949;43.060;25.624;2023-08-07T13:58:59;30.20;48.00
63802;DHT22;49949;43.060;25.624;2023-08-07T14:01:25;29.90;48.80
63802;DHT22;49949;43.060;25.624;2023-08-07T14:03:51;29.90;50.20
63802;DHT22;49949;43.060;25.624;2023-08-07T14:06:17;29.90;48.30
63802;DHT22;49949;43.060;25.624;2023-08-07T14:08:42;29.80;47.90
63802;DHT22;49949;43.060;25.624;2023-08-07T14:11:08;29.50;49.70
63802;DHT22;49949;43.060;25.624;2023-08-07T14:13:34;29.50;50.50
63802;DHT22;49949;43.060;25.624;2023-08-07T14:15:59;29.40;50.60
63802;DHT22;49949;43.060;25.624;2023-08-07T14:18:25;29.70;51.20
63802;DHT22;49949;43.060;25.624;2023-08-07T14:20:52;30.00;49.70
63802;DHT22;49949;43.060;25.624;2023-08-07T14:23:18;30.10;49.40
63802;DHT22;49949;43.060;25.624;2023-08-07T14:25:44;30.10;48.20
63802;DHT22;49949;43.060;25.624;2023-08-07T14:28:10;30.20;50.20
63802;DHT22;49949;43.060;25.624;2023-08-07T14:30:36;30.20;47.10
63802;DHT22;49949;43.060;25.624;2023-08-07T14:33:02;29.80;48.70
63802;DHT22;49949;43.060;25.624;2023-08-07T14:35:27;29.50;50.00
63802;DHT22;49949;43.060;25.624;2023-08-07T14:37:53;29.70;49.50
63802;DHT22;49949;43.060;25.624;2023-08-07T14:40:19;29.60;48.00
63802;DHT22;49949;43.060;25.624;2023-08-07T14:42:44;29.50;49.30
63802;DHT22;49949;43.060;25.624;2023-08-07T14:45:10;29.70;50.20
63802;DHT22;49949;43.060;25.624;2023-08-07T14:47:36;29.70;48.70
63802;DHT22;49949;43.060;25.624;2023-08-07T14:50:02;29.90;47.90
63802;DHT22;49949;43.060;25.624;2023-08-07T14:52:28;29.90;49.50
63802;DHT22;49949;43.060;25.624;2023-08-07T14:54:53;29.90;47.20
63802;DHT22;49949;43.060;25.624;2023-08-07T14:57:22;29.80;47.90
63802;DHT22;49949;43.060;25.624;2023-08-07T14:59:48;29.80;48.90
63802;DHT22;49949;43.060;25.624;2023-08-07T15:02:14;29.90;48.70
63802;DHT22;49949;43.060;25.624;2023-08-07T15:04:39;29.90;47.90
63802;DHT22;49949;43.060;25.624;2023-08-07T15:07:05;29.80;47.90
63802;DHT22;49949;43.060;25.624;2023-08-07T15:09:32;29.90;49.40
63802;DHT22;49949;43.060;25.624;2023-08-07T15:11:58;30.10;48.70
63802;DHT22;49949;43.060;25.624;2023-08-07T15:14:23;30.10;49.20
63802;DHT22;49949;43.060;25.624;2023-08-07T15:16:49;30.20;49.80
63802;DHT22;49949;43.060;25.624;2023-08-07T15:19:14;30.30;48.20
63802;DHT22;49949;43.060;25.624;2023-08-07T15:21:43;30.40;47.70
63802;DHT22;49949;43.060;25.624;2023-08-07T15:24:08;30.20;46.40
63802;DHT22;49949;43.060;25.624;2023-08-07T15:26:34;30.00;47.70
63802;DHT22;49949;43.060;25.624;2023-08-07T15:29:00;29.90;48.00
63802;DHT22;49949;43.060;25.624;2023-08-07T15:31:25;29.90;48.00